ADDS METAR Data INFO
IDs: Format: Raw Decoded Include TAF

Data at: 0920 UTC 13 Dec 2017

KSKX 130856Z AUTO 01008KT 10SM CLR M11/M17 A3030 RMK AO2 SLP272 T11061172 55005 FZRANO $
KSKX 130756Z AUTO 36006KT 10SM CLR M09/M17 A3030 RMK AO2 SLP271 T10891172 FZRANO $
KSKX 130656Z AUTO 35004KT 10SM CLR M09/M17 A3031 RMK AO2 SLP282 T10891172 401281122 FZRANO $
KSKX 130556Z AUTO 36007KT 10SM CLR M08/M17 A3032 RMK AO2 SLP287 T10781167 10067 21078 58007 FZRANO $
KSKX 130456Z AUTO 36004KT 10SM CLR M05/M14 A3033 RMK AO2 SLP294 T10501144 FZRANO $
KSKX 130356Z AUTO 05006G15KT 10SM CLR M03/M14 A3034 RMK AO2 SLP308 T10331144 FZRANO $
KSKX 130256Z AUTO 00000KT 10SM CLR M02/M15 A3035 RMK AO2 SLP322 T10221150 50001 FZRANO $
KSKX 130156Z AUTO 08009KT 10SM CLR M01/M14 A3035 RMK AO2 SLP330 T10111144 FZRANO $
KSKX 130056Z AUTO 12005KT 10SM CLR M01/M16 A3035 RMK AO2 SLP326 T10061161 FZRANO $
KSKX 122356Z AUTO 18005KT 10SM CLR 07/M16 A3035 RMK AO2 SLP302 T00671161 10128 20067 56011 $
KSKX 122256Z AUTO 22006KT 10SM CLR 12/M16 A3035 RMK AO2 SLP283 T01221156 $
KSKX 122156Z AUTO 24003KT 10SM CLR 12/M16 A3036 RMK AO2 SLP286 T01221161 $
KSKX 122056Z AUTO 25004KT 10SM CLR 12/M16 A3039 RMK AO2 SLP292 T01221156 56038 $
KSKX 121956Z AUTO VRB04KT 10SM CLR 11/M16 A3043 RMK AO2 SLP310 T01061161 $
KSKX 121856Z AUTO 00000KT 10SM CLR 08/M16 A3047 RMK AO2 SLP329 T00831161 $
KSKX 121756Z AUTO 20003KT 10SM CLR 07/M16 A3052 RMK AO2 SLP341 T00671156 10067 21122 58012 $
KSKX 121656Z AUTO VRB03KT 10SM CLR 03/M16 A3056 RMK AO2 SLP365 T00281161 $
KSKX 121556Z AUTO 31003KT 10SM CLR M03/M15 A3057 RMK AO2 SLP384 T10281150 FZRANO $
KSKX 121456Z AUTO 36003KT 10SM CLR M08/M17 A3056 RMK AO2 SLP403 T10831167 53003 FZRANO $
KSKX 121356Z AUTO 01005KT 10SM CLR M12/M18 A3056 RMK AO2 SLP411 T11171183 FZRANO $
KSKX 121256Z AUTO 36006KT 10SM CLR M11/M18 A3055 RMK AO2 SLP399 T11111183 FZRANO $
KSKX 121156Z AUTO 03007KT 10SM CLR M10/M18 A3055 RMK AO2 SLP377 T11001183 11011 21106 51005 FZRANO $
KSKX 121056Z AUTO 01005KT 10SM CLR M08/M18 A3055 RMK AO2 SLP354 T10831178 FZRANO $
KSKX 120956Z AUTO 03004KT 10SM CLR M08/M18 A3054 RMK AO2 SLP352 T10831178 FZRANO $
KSKX 120856Z AUTO 36005KT 10SM CLR M07/M18 A3054 RMK AO2 SLP349 T10721178 53007 FZRANO $
KSKX 120756Z AUTO 36004KT 10SM CLR M06/M18 A3052 RMK AO2 SLP348 T10611178 FZRANO $
KSKX 120656Z AUTO 03005KT 10SM CLR M05/M17 A3052 RMK AO2 SLP348 T10501172 401331139 FZRANO $
KSKX 120556Z AUTO 31003KT 10SM CLR M02/M16 A3051 RMK AO2 SLP340 T10171161 10061 21050 51012 FZRANO $
KSKX 120456Z AUTO 00000KT 10SM CLR M02/M18 A3050 RMK AO2 SLP349 T10171178 FZRANO $
KSKX 120356Z AUTO 02005KT 10SM CLR M02/M17 A3048 RMK AO2 SLP355 T10221167 FZRANO $
KSKX 120256Z AUTO 34005KT 10SM CLR M03/M17 A3047 RMK AO2 SLP368 T10331172 51018 FZRANO $
KSKX 120156Z AUTO 09004KT 10SM CLR M03/M17 A3045 RMK AO2 SLP375 T10281172 FZRANO $
KSKX 120056Z AUTO 10005KT 10SM CLR 00/M18 A3043 RMK AO2 SLP355 T00001183 FZRANO $
KSKX 112356Z AUTO 02008KT 10SM CLR 07/M18 A3040 RMK AO2 SLP325 T00671178 10133 20056 55000 $
KSKX 112256Z AUTO VRB03KT 10SM CLR 12/M17 A3039 RMK AO2 SLP303 T01221167 $
KSKX 112156Z AUTO 20004KT 10SM CLR 13/M17 A3039 RMK AO2 SLP305 T01281167 $